createdAt,value
2022-10-04T00:01:00.654Z,99128.78
2022-10-04T00:03:34.115Z,99124.88
2022-10-04T00:06:02.599Z,99119.25
2022-10-04T00:08:46.288Z,99119.44
2022-10-04T00:11:18.428Z,99119.44
2022-10-04T00:13:50.797Z,99117.84
2022-10-04T00:16:31.710Z,99114.34
2022-10-04T00:19:23.094Z,99117.00
2022-10-04T00:22:12.651Z,99112.25
2022-10-04T00:25:01.712Z,99122.97
2022-10-04T00:27:29.244Z,99124.38
2022-10-04T00:30:22.296Z,99125.72
2022-10-04T00:33:05.569Z,99125.78
2022-10-04T00:35:32.138Z,99130.38
2022-10-04T00:38:00.030Z,99134.75
2022-10-04T00:40:48.806Z,99129.81
2022-10-04T00:43:20.873Z,99130.13
2022-10-04T00:45:55.712Z,99128.84
2022-10-04T00:48:22.374Z,99125.25
2022-10-04T00:50:56.405Z,99129.84
2022-10-04T00:53:41.670Z,99122.34
2022-10-04T00:56:15.025Z,99121.34
2022-10-04T00:58:57.499Z,99120.91
2022-10-04T01:01:27.381Z,99119.47
2022-10-04T01:03:57.572Z,99114.94
2022-10-04T01:06:26.483Z,99116.06
2022-10-04T01:08:56.134Z,99109.31
2022-10-04T01:11:26.889Z,99110.50
2022-10-04T01:14:08.581Z,99103.97
2022-10-04T01:16:36.475Z,99110.44
2022-10-04T01:19:26.575Z,99101.03
2022-10-04T01:22:08.391Z,99102.09
2022-10-04T01:24:37.545Z,99106.31
2022-10-04T01:27:05.546Z,99105.94
2022-10-04T01:29:32.601Z,99106.94
2022-10-04T01:32:00.884Z,99107.94
2022-10-04T01:34:30.124Z,99100.16
2022-10-04T01:36:59.276Z,99108.41
2022-10-04T01:39:28.165Z,99101.75
2022-10-04T01:42:03.315Z,99109.44
2022-10-04T01:44:44.217Z,99107.88
2022-10-04T01:47:16.731Z,99095.41
2022-10-04T01:49:46.824Z,99102.81
2022-10-04T01:52:19.850Z,99107.44
2022-10-04T01:54:52.086Z,99109.47
2022-10-04T01:57:23.668Z,99102.16
2022-10-04T01:59:55.258Z,99110.66
2022-10-04T02:02:26.366Z,99105.13
2022-10-04T02:04:56.761Z,99108.41
2022-10-04T02:07:26.543Z,99101.69
2022-10-04T02:09:59.562Z,99101.25
2022-10-04T02:12:28.607Z,99099.22
2022-10-04T02:14:56.637Z,99099.41
2022-10-04T02:17:28.512Z,99103.22
2022-10-04T02:19:56.835Z,99096.25
2022-10-04T02:22:25.546Z,99107.38
2022-10-04T02:24:55.010Z,99108.56
2022-10-04T02:27:29.144Z,99100.78
2022-10-04T02:30:06.494Z,99104.78
2022-10-04T02:32:48.793Z,99096.75
2022-10-04T02:35:16.314Z,99091.94
2022-10-04T02:37:43.486Z,99098.00
2022-10-04T02:40:14.114Z,99098.09
2022-10-04T02:42:47.960Z,99100.47
2022-10-04T02:45:21.904Z,99109.28
2022-10-04T02:47:53.824Z,99108.50
2022-10-04T02:50:40.058Z,99108.28
2022-10-04T02:53:26.742Z,99109.34
2022-10-04T02:55:55.981Z,99109.63
2022-10-04T02:58:24.978Z,99108.38
2022-10-04T03:00:58.264Z,99102.34
2022-10-04T03:03:29.622Z,99101.34
2022-10-04T03:06:08.844Z,99091.88
2022-10-04T03:08:44.472Z,99094.16
2022-10-04T03:11:14.052Z,99092.16
2022-10-04T03:13:45.041Z,99094.97
2022-10-04T03:16:12.540Z,99096.63
2022-10-04T03:18:40.096Z,99092.69
2022-10-04T03:21:09.953Z,99092.41
2022-10-04T03:23:38.648Z,99087.72
2022-10-04T03:26:06.244Z,99093.66
2022-10-04T03:28:33.106Z,99093.88
2022-10-04T03:31:00.757Z,99098.13
2022-10-04T03:33:31.488Z,99097.31
2022-10-04T03:36:03.749Z,99095.50
2022-10-04T03:38:34.627Z,99101.50
2022-10-04T03:41:03.141Z,99101.16
2022-10-04T03:43:34.170Z,99097.88
2022-10-04T03:46:02.330Z,99098.53
2022-10-04T03:48:41.271Z,99104.41
2022-10-04T03:51:14.627Z,99108.50
2022-10-04T03:53:45.340Z,99107.50
2022-10-04T03:56:18.852Z,99108.78
2022-10-04T03:58:46.807Z,99108.03
2022-10-04T04:01:30.301Z,99099.19
2022-10-04T04:04:13.348Z,99105.78
2022-10-04T04:06:48.138Z,99102.84
2022-10-04T04:09:22.671Z,99108.75
2022-10-04T04:11:51.013Z,99113.84
2022-10-04T04:14:25.224Z,99109.28
2022-10-04T04:16:54.853Z,99110.41
2022-10-04T04:19:25.074Z,99118.50
2022-10-04T04:21:55.297Z,99113.31
2022-10-04T04:24:28.331Z,99117.25
2022-10-04T04:26:59.562Z,99115.25
2022-10-04T04:29:47.302Z,99112.16
2022-10-04T04:32:20.801Z,99104.53
2022-10-04T04:34:53.307Z,99104.25
2022-10-04T04:37:20.501Z,99098.53
2022-10-04T04:39:54.788Z,99099.31
2022-10-04T04:42:37.989Z,99090.88
2022-10-04T04:45:14.352Z,99093.34
2022-10-04T04:47:46.907Z,99092.06
2022-10-04T04:50:18.251Z,99103.19
2022-10-04T04:52:52.031Z,99111.28
2022-10-04T04:55:25.864Z,99111.63
2022-10-04T04:57:56.782Z,99110.16
2022-10-04T05:00:31.495Z,99117.19
2022-10-04T05:03:01.142Z,99117.81
2022-10-04T05:05:30.314Z,99119.63
2022-10-04T05:08:18.604Z,99110.44
2022-10-04T05:11:12.762Z,99116.19
2022-10-04T05:13:42.707Z,99117.72
2022-10-04T05:16:15.334Z,99120.47
2022-10-04T05:18:42.132Z,99120.84
2022-10-04T05:21:17.144Z,99118.38
2022-10-04T05:23:43.879Z,99120.16
2022-10-04T05:26:12.859Z,99112.72
2022-10-04T05:28:39.658Z,99119.81
2022-10-04T05:31:32.288Z,99113.53
2022-10-04T05:33:59.257Z,99113.44
2022-10-04T05:36:42.263Z,99114.41
2022-10-04T05:39:22.624Z,99115.59
2022-10-04T05:41:58.267Z,99116.63
2022-10-04T05:44:28.797Z,99126.94
2022-10-04T05:46:59.094Z,99126.22
2022-10-04T05:49:31.052Z,99128.47
2022-10-04T05:52:03.751Z,99132.75
2022-10-04T05:54:34.202Z,99143.47
2022-10-04T05:57:20.779Z,99149.09
2022-10-04T06:00:06.996Z,99151.13
2022-10-04T06:02:41.474Z,99149.94
2022-10-04T06:05:15.847Z,99153.44
2022-10-04T06:07:57.701Z,99152.53
2022-10-04T06:10:50.198Z,99148.44
2022-10-04T06:13:52.116Z,99148.06
2022-10-04T06:16:38.682Z,99146.50
2022-10-04T06:19:20.704Z,99152.28
2022-10-04T06:22:20.739Z,99155.22
2022-10-04T06:24:53.374Z,99160.56
2022-10-04T06:27:41.793Z,99152.34
2022-10-04T06:30:15.077Z,99161.09
2022-10-04T06:33:14.087Z,99161.03
2022-10-04T06:35:56.070Z,99148.88
2022-10-04T06:38:38.360Z,99156.56
2022-10-04T06:41:21.295Z,99159.84
2022-10-04T06:44:03.036Z,99167.34
2022-10-04T06:46:45.865Z,99166.88
2022-10-04T06:49:52.264Z,99166.66
2022-10-04T06:52:24.813Z,99169.75
2022-10-04T06:55:21.448Z,99164.47
2022-10-04T06:57:59.028Z,99171.56
2022-10-04T07:00:27.603Z,99163.34
2022-10-04T07:03:10.023Z,99170.31
2022-10-04T07:06:07.261Z,99166.97
2022-10-04T07:08:38.573Z,99170.38
2022-10-04T07:11:14.054Z,99164.16
2022-10-04T07:14:00.403Z,99153.44
2022-10-04T07:16:38.057Z,99158.16
2022-10-04T07:19:16.150Z,99153.28
2022-10-04T07:22:12.242Z,99148.59
2022-10-04T07:25:03.454Z,99158.00
2022-10-04T07:27:42.313Z,99162.69
2022-10-04T07:30:15.812Z,99171.78
2022-10-04T07:32:46.762Z,99176.69
2022-10-04T07:35:23.480Z,99180.34
2022-10-04T07:38:17.109Z,99175.53
2022-10-04T07:41:04.394Z,99180.06
2022-10-04T07:43:34.220Z,99174.09
2022-10-04T07:46:10.973Z,99180.63
2022-10-04T07:48:40.665Z,99180.81
2022-10-04T07:51:19.818Z,99178.97
2022-10-04T07:53:55.832Z,99174.59
2022-10-04T07:56:34.219Z,99189.13
2022-10-04T07:59:20.202Z,99192.16
2022-10-04T08:02:07.678Z,99190.13
2022-10-04T08:04:56.268Z,99189.56
2022-10-04T08:07:43.257Z,99186.50
2022-10-04T08:10:23.204Z,99192.38
2022-10-04T08:12:57.170Z,99188.97
2022-10-04T08:15:40.473Z,99189.81
2022-10-04T08:18:39.166Z,99191.28
2022-10-04T08:21:09.039Z,99198.00
2022-10-04T08:24:06.218Z,99186.22
2022-10-04T08:27:04.425Z,99189.88
2022-10-04T08:29:42.816Z,99185.81
2022-10-04T08:32:24.592Z,99187.88
2022-10-04T08:35:22.629Z,99185.00
2022-10-04T08:38:08.731Z,99187.84
2022-10-04T08:41:06.081Z,99185.19
2022-10-04T08:43:46.757Z,99195.19
2022-10-04T08:46:47.558Z,99196.00
2022-10-04T08:49:29.619Z,99194.56
2022-10-04T08:52:27.000Z,99191.50
2022-10-04T08:55:13.432Z,99197.00
2022-10-04T08:58:10.564Z,99185.97
2022-10-04T09:00:52.477Z,99195.34
2022-10-04T09:03:36.765Z,99187.63
2022-10-04T09:06:18.657Z,99188.63
2022-10-04T09:09:02.104Z,99180.47
2022-10-04T09:11:58.374Z,99173.09
2022-10-04T09:14:41.352Z,99167.59
2022-10-04T09:17:36.672Z,99168.22
2022-10-04T09:20:37.660Z,99169.16
2022-10-04T09:23:22.703Z,99170.59
2022-10-04T09:26:06.486Z,99168.75
2022-10-04T09:29:05.982Z,99165.41
2022-10-04T09:31:48.280Z,99168.13
2022-10-04T09:34:33.822Z,99165.44
2022-10-04T09:37:33.793Z,99173.13
2022-10-04T09:40:26.089Z,99172.47
2022-10-04T09:43:28.427Z,99169.59
2022-10-04T09:46:12.062Z,99174.66
2022-10-04T09:48:54.263Z,99168.41
2022-10-04T09:51:54.156Z,99166.66
2022-10-04T09:54:43.693Z,99161.63
2022-10-04T09:57:41.193Z,99159.00
2022-10-04T10:00:22.121Z,99160.63
2022-10-04T10:03:12.251Z,99162.78
2022-10-04T10:06:12.499Z,99153.88
2022-10-04T10:08:48.702Z,99150.16
2022-10-04T10:11:46.858Z,99151.47
2022-10-04T10:14:34.453Z,99150.81
2022-10-04T10:17:17.805Z,99144.22
2022-10-04T10:20:16.817Z,99155.25
2022-10-04T10:23:18.381Z,99156.06
2022-10-04T10:26:02.884Z,99150.69
2022-10-04T10:29:04.418Z,99153.25
2022-10-04T10:31:47.699Z,99156.69
2022-10-04T10:34:54.474Z,99164.16
2022-10-04T10:37:37.320Z,99157.47
2022-10-04T10:40:34.348Z,99163.81
2022-10-04T10:43:31.352Z,99158.06
2022-10-04T10:46:05.569Z,99155.53
2022-10-04T10:49:02.751Z,99163.63
2022-10-04T10:51:44.985Z,99159.91
2022-10-04T10:54:25.284Z,99149.94
2022-10-04T10:57:06.185Z,99161.53
2022-10-04T10:59:50.483Z,99167.22
2022-10-04T11:02:52.954Z,99168.47
2022-10-04T11:05:50.129Z,99162.75
2022-10-04T11:08:31.959Z,99155.41
2022-10-04T11:11:29.819Z,99158.81
2022-10-04T11:14:13.488Z,99159.00
2022-10-04T11:17:10.571Z,99151.31
2022-10-04T11:19:53.359Z,99149.66
2022-10-04T11:22:44.824Z,99139.31
2022-10-04T11:25:29.367Z,99142.81
2022-10-04T11:28:18.468Z,99138.06
2022-10-04T11:31:20.217Z,99137.78
2022-10-04T11:34:09.722Z,99134.19
2022-10-04T11:37:04.835Z,99130.72
2022-10-04T11:39:56.113Z,99125.78
2022-10-04T11:42:30.417Z,99129.28
2022-10-04T11:45:17.267Z,99127.88
2022-10-04T11:48:00.258Z,99130.91
2022-10-04T11:50:45.011Z,99124.75
2022-10-04T11:53:42.188Z,99129.28
2022-10-04T11:56:18.757Z,99130.75
2022-10-04T11:58:45.328Z,99127.59
2022-10-04T12:01:30.402Z,99123.38
2022-10-04T12:04:19.332Z,99112.28
2022-10-04T12:07:22.668Z,99113.75
2022-10-04T12:10:14.168Z,99117.47
2022-10-04T12:12:41.768Z,99103.00
2022-10-04T12:15:23.779Z,99092.94
2022-10-04T12:18:24.887Z,99093.53
2022-10-04T12:20:53.211Z,99087.81
2022-10-04T12:23:34.261Z,99093.84
2022-10-04T12:26:20.178Z,99092.69
2022-10-04T12:28:59.985Z,99096.81
2022-10-04T12:31:31.655Z,99084.66
2022-10-04T12:34:25.305Z,99081.16
2022-10-04T12:37:13.883Z,99075.75
2022-10-04T12:39:53.058Z,99075.06
2022-10-04T12:42:39.607Z,99071.50
2022-10-04T12:45:36.823Z,99079.66
2022-10-04T12:48:18.724Z,99079.22
2022-10-04T12:51:05.332Z,99091.91
2022-10-04T12:53:34.707Z,99074.75
2022-10-04T12:56:07.967Z,99064.25
2022-10-04T12:59:02.842Z,99072.91
2022-10-04T13:01:36.344Z,99063.25
2022-10-04T13:04:24.126Z,99063.22
2022-10-04T13:07:12.267Z,99064.47
2022-10-04T13:10:19.160Z,99062.38
2022-10-04T13:13:12.292Z,99059.28
2022-10-04T13:18:50.246Z,99057.28
2022-10-04T13:21:27.712Z,99063.81
2022-10-04T13:24:02.805Z,99054.38
2022-10-04T13:26:42.586Z,99064.28
2022-10-04T13:29:31.184Z,99058.97
2022-10-04T13:32:17.865Z,99053.19
2022-10-04T13:34:52.962Z,99046.53
2022-10-04T13:37:41.388Z,99049.25
2022-10-04T13:40:23.232Z,99051.38
2022-10-04T13:43:03.787Z,99056.13
2022-10-04T13:45:51.356Z,99048.22
2022-10-04T13:48:42.979Z,99050.16
2022-10-04T13:51:40.120Z,99044.66
2022-10-04T13:54:23.028Z,99051.78
2022-10-04T13:57:05.964Z,99051.44
2022-10-04T13:59:44.993Z,99050.88
2022-10-04T14:02:41.042Z,99049.00
2022-10-04T14:05:39.157Z,99051.63
2022-10-04T14:08:38.674Z,99051.47
2022-10-04T14:11:35.851Z,99051.44
2022-10-04T14:14:17.662Z,99054.19
2022-10-04T14:17:00.491Z,99054.94
2022-10-04T14:19:28.093Z,99051.69
2022-10-04T14:22:04.835Z,99047.81
2022-10-04T14:24:33.465Z,99058.91
2022-10-04T14:27:16.585Z,99058.78
2022-10-04T14:29:54.628Z,99056.91
2022-10-04T14:32:36.408Z,99054.06
2022-10-04T14:35:09.613Z,99058.09
2022-10-04T14:38:11.475Z,99058.00
2022-10-04T14:40:54.314Z,99057.25
2022-10-04T14:43:56.608Z,99056.94
2022-10-04T14:46:31.494Z,99053.09
2022-10-04T14:48:59.058Z,99055.59
2022-10-04T14:51:40.853Z,99059.38
2022-10-04T14:54:09.552Z,99053.25
2022-10-04T14:56:53.364Z,99055.94
2022-10-04T14:59:36.564Z,99052.09
2022-10-04T15:02:05.557Z,99046.22
2022-10-04T15:04:32.520Z,99050.94
2022-10-04T15:07:17.384Z,99056.56
2022-10-04T15:09:55.741Z,99057.56
2022-10-04T15:12:40.864Z,99058.59
2022-10-04T15:15:13.131Z,99061.16
2022-10-04T15:17:55.220Z,99058.97
2022-10-04T15:20:25.994Z,99061.34
2022-10-04T15:22:57.206Z,99061.59
2022-10-04T15:25:40.360Z,99057.25
2022-10-04T15:28:31.959Z,99052.38
2022-10-04T15:31:29.244Z,99052.59
2022-10-04T15:34:06.968Z,99055.66
2022-10-04T15:36:38.080Z,99044.06
2022-10-04T15:39:24.055Z,99051.03
2022-10-04T15:42:24.941Z,99052.25
2022-10-04T15:45:17.079Z,99048.72
2022-10-04T15:48:14.279Z,99049.44
2022-10-04T15:50:40.762Z,99049.63
2022-10-04T15:53:41.020Z,99051.97
2022-10-04T15:56:24.376Z,99047.34
2022-10-04T15:59:22.041Z,99055.28
2022-10-04T16:02:19.853Z,99045.53
2022-10-04T16:05:03.537Z,99047.59
2022-10-04T16:07:40.371Z,99047.66
2022-10-04T16:10:37.861Z,99042.91
2022-10-04T16:13:35.795Z,99045.84
2022-10-04T16:16:18.073Z,99039.56
2022-10-04T16:19:18.961Z,99051.25
2022-10-04T16:22:16.071Z,99053.19
2022-10-04T16:24:59.855Z,99058.91
2022-10-04T16:27:44.260Z,99061.09
2022-10-04T16:30:26.147Z,99060.88
2022-10-04T16:33:13.956Z,99065.59
2022-10-04T16:36:11.939Z,99065.50
2022-10-04T16:39:12.059Z,99069.22
2022-10-04T16:41:44.444Z,99070.53
2022-10-04T16:44:37.530Z,99072.88
2022-10-04T16:47:34.656Z,99079.59
2022-10-04T16:50:04.889Z,99068.72
2022-10-04T16:52:49.868Z,99075.44
2022-10-04T16:55:38.055Z,99077.97
2022-10-04T16:58:41.483Z,99083.03
2022-10-04T17:01:23.537Z,99076.31
2022-10-04T17:04:02.601Z,99074.69
2022-10-04T17:06:49.274Z,99076.50
2022-10-04T17:09:27.126Z,99081.94
2022-10-04T17:11:54.759Z,99071.97
2022-10-04T17:14:49.804Z,99070.06
2022-10-04T17:17:36.268Z,99082.31
2022-10-04T17:20:14.288Z,99087.97
2022-10-04T17:23:09.377Z,99088.56
2022-10-04T17:25:53.030Z,99091.69
2022-10-04T17:28:30.765Z,99083.94
2022-10-04T17:31:25.956Z,99094.75
2022-10-04T17:34:21.736Z,99091.94
2022-10-04T17:36:55.036Z,99092.72
2022-10-04T17:39:41.529Z,99100.78
2022-10-04T17:42:08.254Z,99099.47
2022-10-04T17:44:46.728Z,99105.41
2022-10-04T17:47:24.177Z,99107.91
2022-10-04T17:50:07.296Z,99108.97
2022-10-04T17:53:02.109Z,99102.53
2022-10-04T17:55:45.875Z,99098.72
2022-10-04T17:58:19.561Z,99108.22
2022-10-04T18:01:07.752Z,99107.44
2022-10-04T18:03:43.998Z,99106.41
2022-10-04T18:06:26.184Z,99109.59
2022-10-04T18:09:23.267Z,99103.88
2022-10-04T18:11:52.604Z,99112.63
2022-10-04T18:14:34.581Z,99100.78
2022-10-04T18:17:05.171Z,99103.25
2022-10-04T18:19:51.045Z,99103.25
2022-10-04T18:22:19.824Z,99097.09
2022-10-04T18:25:23.292Z,99094.03
2022-10-04T18:28:00.001Z,99095.94
2022-10-04T18:30:26.781Z,99100.28
2022-10-04T18:32:57.321Z,99102.03
2022-10-04T18:35:30.325Z,99097.91
2022-10-04T18:38:21.016Z,99104.00
2022-10-04T18:41:16.275Z,99105.66
2022-10-04T18:43:58.208Z,99101.66
2022-10-04T18:46:25.225Z,99103.69
2022-10-04T18:48:56.825Z,99113.66
2022-10-04T18:51:39.974Z,99109.56
2022-10-04T18:54:06.562Z,99120.03
2022-10-04T18:56:47.012Z,99112.38
2022-10-04T18:59:43.141Z,99109.75
2022-10-04T19:02:21.627Z,99114.84
2022-10-04T19:05:18.413Z,99115.66
2022-10-04T19:08:05.533Z,99120.41
2022-10-04T19:10:39.900Z,99115.06
2022-10-04T19:13:21.787Z,99118.31
2022-10-04T19:16:11.802Z,99118.31
2022-10-04T19:18:53.798Z,99119.34
2022-10-04T19:21:27.694Z,99120.97
2022-10-04T19:24:02.096Z,99128.94
2022-10-04T19:26:33.118Z,99119.38
2022-10-04T19:29:05.400Z,99125.50
2022-10-04T19:31:44.763Z,99122.25
2022-10-04T19:34:18.088Z,99127.13
2022-10-04T19:36:46.489Z,99121.84
2022-10-04T19:39:42.236Z,99121.47
2022-10-04T19:42:14.189Z,99122.06
2022-10-04T19:45:01.889Z,99125.53
2022-10-04T19:47:43.980Z,99132.66
2022-10-04T19:50:23.815Z,99130.63
2022-10-04T19:53:02.769Z,99136.09
2022-10-04T19:55:43.960Z,99123.28
2022-10-04T19:58:26.941Z,99135.91
2022-10-04T20:00:54.042Z,99139.38
2022-10-04T20:03:20.808Z,99142.00
2022-10-04T20:05:50.144Z,99148.31
2022-10-04T20:08:44.930Z,99154.63
2022-10-04T20:11:26.165Z,99155.59
2022-10-04T20:14:32.619Z,99159.28
2022-10-04T20:17:00.866Z,99155.81
2022-10-04T20:19:27.425Z,99155.56
2022-10-04T20:21:55.589Z,99161.31
2022-10-04T20:24:37.526Z,99166.97
2022-10-04T20:27:09.124Z,99171.81
2022-10-04T20:29:36.806Z,99167.06
2022-10-04T20:32:36.728Z,99168.56
2022-10-04T20:35:06.263Z,99159.63
2022-10-04T20:38:30.613Z,99170.00
2022-10-04T20:40:50.279Z,99176.72
2022-10-04T20:43:16.864Z,99179.75
2022-10-04T20:45:46.474Z,99182.81
2022-10-04T20:48:20.372Z,99185.03
2022-10-04T20:50:49.736Z,99179.09
2022-10-04T20:53:27.738Z,99179.81
2022-10-04T20:56:09.247Z,99179.06
2022-10-04T20:58:35.970Z,99186.69
2022-10-04T21:01:19.786Z,99184.28
2022-10-04T21:03:46.718Z,99185.03
2022-10-04T21:06:13.361Z,99183.38
2022-10-04T21:08:41.134Z,99183.16
2022-10-04T21:11:20.545Z,99177.28
2022-10-04T21:13:57.522Z,99190.66
2022-10-04T21:16:41.340Z,99189.69
2022-10-04T21:19:43.667Z,99200.00
2022-10-04T21:22:32.572Z,99193.97
2022-10-04T21:25:02.302Z,99193.13
2022-10-04T21:27:39.734Z,99189.38
2022-10-04T21:30:08.137Z,99190.91
2022-10-04T21:32:36.895Z,99185.88
2022-10-04T21:35:06.456Z,99183.13
2022-10-04T21:37:33.843Z,99190.38
2022-10-04T21:40:01.112Z,99187.16
2022-10-04T21:42:28.212Z,99188.66
2022-10-04T21:44:55.044Z,99196.81
2022-10-04T21:47:21.832Z,99191.31
2022-10-04T21:49:49.698Z,99191.69
2022-10-04T21:52:18.091Z,99196.53
2022-10-04T21:54:45.461Z,99204.69
2022-10-04T21:57:12.453Z,99210.78
2022-10-04T21:59:39.186Z,99209.16
2022-10-04T22:02:07.741Z,99214.22
2022-10-04T22:04:34.953Z,99207.22
2022-10-04T22:07:01.782Z,99204.25
2022-10-04T22:09:29.197Z,99206.44
2022-10-04T22:11:56.077Z,99209.34
2022-10-04T22:14:22.738Z,99199.91
2022-10-04T22:16:50.141Z,99196.31
2022-10-04T22:19:17.469Z,99208.72
2022-10-04T22:21:44.080Z,99207.69
2022-10-04T22:24:19.105Z,99207.69
2022-10-04T22:26:46.758Z,99200.59
2022-10-04T22:29:15.734Z,99204.69
2022-10-04T22:31:49.200Z,99197.97
2022-10-04T22:34:17.731Z,99200.16
2022-10-04T22:36:45.116Z,99216.38
2022-10-04T22:39:18.136Z,99218.56
2022-10-04T22:41:48.216Z,99217.94
2022-10-04T22:44:14.829Z,99224.66
2022-10-04T22:46:44.642Z,99225.59
2022-10-04T22:49:14.031Z,99224.00
2022-10-04T22:51:42.641Z,99226.16
2022-10-04T22:54:12.170Z,99242.50
2022-10-04T22:56:39.320Z,99227.94
2022-10-04T22:59:06.064Z,99226.91
2022-10-04T23:01:32.706Z,99225.53
2022-10-04T23:03:59.414Z,99225.06
2022-10-04T23:06:27.894Z,99227.69
2022-10-04T23:08:55.057Z,99226.75
2022-10-04T23:11:21.871Z,99234.63
2022-10-04T23:13:48.464Z,99243.38
2022-10-04T23:16:21.033Z,99248.28
2022-10-04T23:18:47.864Z,99243.00
2022-10-04T23:21:21.206Z,99264.22
2022-10-04T23:23:48.878Z,99245.16
2022-10-04T23:26:22.124Z,99234.78
2022-10-04T23:28:48.829Z,99240.78
2022-10-04T23:31:26.866Z,99243.69
2022-10-04T23:33:56.805Z,99234.13
2022-10-04T23:36:24.772Z,99240.63
2022-10-04T23:38:56.503Z,99245.53
2022-10-04T23:41:26.960Z,99241.78
2022-10-04T23:43:53.716Z,99247.63
2022-10-04T23:46:26.608Z,99245.16
2022-10-04T23:48:53.259Z,99253.16
2022-10-04T23:51:20.193Z,99253.78
2022-10-04T23:53:49.205Z,99253.00
2022-10-04T23:56:22.229Z,99247.00
2022-10-04T23:58:51.251Z,99247.44
